Latest Weather Observations for Esperance Harbour

IDW60801

Issued at 9:32 pm WST Saturday 28 May 2016 (issued every 30 minutes, with the page automatically refreshed every 10 minutes)

About weather observations | Map of weather stations | Latest weather observations for WA | Other Formats
Station Details ID: 109504 Name: ESPERANCE NTC AWS Lat: -33.87 Lon: 121.90 Height: 0.0 m
Data from the previous 72 hours. | See also: Recent months for locations in Western Australia
Date/Time
WST
Temp
°C
App
Temp
°C
Dew
Point
Rel
Hum
%
Delta-T
°C
Wind Press
QNH
hPa
Press
MSL
hPa
Rain
since 9 am
mm
Dir
 
Spd
km/h
Gust
km/h
Spd
kts
Gust
kts
28/09:30pm 12.8 - - - - - - - - - 1012.6 1012.6 -
28/09:00pm 12.6 - - - - - - - - - 1013.0 1013.0 -
28/08:30pm 12.8 - - - - - - - - - 1012.8 1012.8 -
28/08:00pm 14.1 - - - - - - - - - 1012.6 1012.6 -
28/07:30pm 15.3 - - - - - - - - - 1012.4 1012.4 -
28/07:00pm 15.6 - - - - - - - - - 1012.4 1012.4 -
28/06:30pm 16.6 - - - - - - - - - 1012.0 1012.0 -
28/06:00pm 16.4 - - - - - - - - - 1011.7 1011.7 -
28/05:30pm 16.7 - - - - - - - - - 1011.5 1011.5 -
28/05:00pm 16.8 - - - - - - - - - 1011.2 1011.2 -
28/04:30pm 17.2 - - - - - - - - - 1010.9 1010.9 -
28/04:00pm 17.7 - - - - - - - - - 1010.6 1010.6 -
28/03:30pm 18.0 - - - - - - - - - 1010.3 1010.3 -
28/03:00pm 18.0 - - - - - - - - - 1010.3 1010.3 -
28/02:30pm 18.1 - - - - - - - - - 1009.8 1009.8 -
28/02:00pm 18.2 - - - - - - - - - 1009.7 1009.7 -
28/01:30pm 18.3 - - - - - - - - - 1009.4 1009.4 -
28/01:00pm 18.5 - - - - - - - - - 1009.4 1009.4 -
28/12:30pm 17.3 - - - - - - - - - 1009.6 1009.6 -
28/12:00pm 16.2 - - - - - - - - - 1010.0 1010.0 -
28/11:30am 14.5 - - - - - - - - - 1010.6 1010.6 -
28/11:00am 13.9 - - - - - - - - - 1011.4 1011.4 -
28/10:30am 13.3 - - - - - - - - - 1011.8 1011.8 -
28/10:00am 13.5 - - - - - - - - - 1012.6 1012.6 -
28/09:30am 13.5 - - - - - - - - - 1012.9 1012.9 -
28/09:00am 12.2 - - - - - - - - - 1012.5 1012.5 -
28/08:30am 11.5 - - - - - - - - - 1012.9 1012.9 -
28/08:00am 11.4 - - - - - - - - - 1013.0 1013.0 -
28/07:30am 11.2 - - - - - - - - - 1013.2 1013.2 -
28/07:00am 11.1 - - - - - - - - - 1013.3 1013.3 -
28/06:30am 11.1 - - - - - - - - - 1013.5 1013.5 -
28/06:00am 10.7 - - - - - - - - - 1013.6 1013.6 -
28/05:30am 10.6 - - - - - - - - - 1013.8 1013.8 -
28/05:00am 10.7 - - - - - - - - - 1013.8 1013.8 -
28/04:30am 11.0 - - - - - - - - - 1014.2 1014.2 -
28/04:00am 10.7 - - - - - - - - - 1014.4 1014.4 -
28/03:30am 11.2 - - - - - - - - - 1014.6 1014.6 -
28/03:00am 11.2 - - - - - - - - - 1015.0 1015.0 -
28/02:30am 11.2 - - - - - - - - - 1015.2 1015.2 -
28/02:00am 11.3 - - - - - - - - - 1015.6 1015.6 -
28/01:30am 11.7 - - - - - - - - - 1016.2 1016.2 -
28/01:00am 12.1 - - - - - - - - - 1016.6 1016.6 -
28/12:30am 12.2 - - - - - - - - - 1017.2 1017.2 -
28/12:00am 12.2 - - - - - - - - - 1017.8 1017.8 -
 
Date/Time
WST
Temp
°C
App
Temp
°C
Dew
Point
Rel
Hum
%
Delta-T
°C
Wind Press
QNH
hPa
Press
MSL
hPa
Rain
since 9 am
mm
Dir
 
Spd
km/h
Gust
km/h
Spd
kts
Gust
kts
27/11:30pm 12.1 - - - - - - - - - 1018.2 1018.2 -
27/11:00pm 12.0 - - - - - - - - - 1018.5 1018.5 -
27/10:30pm 12.0 - - - - - - - - - 1018.9 1018.9 -
27/10:00pm 12.2 - - - - - - - - - 1019.0 1019.0 -
27/09:30pm 12.9 - - - - - - - - - 1019.1 1019.1 -
27/09:00pm 13.5 - - - - - - - - - 1019.4 1019.4 -
27/08:30pm 13.7 - - - - - - - - - 1019.8 1019.8 -
27/08:00pm 14.3 - - - - - - - - - 1019.6 1019.6 -
27/07:30pm 14.7 - - - - - - - - - 1019.7 1019.7 -
27/07:00pm 15.4 - - - - - - - - - 1019.7 1019.7 -
27/06:30pm 15.7 - - - - - - - - - 1019.7 1019.7 -
27/06:00pm 15.9 - - - - - - - - - 1019.9 1019.9 -
27/05:30pm 16.4 - - - - - - - - - 1020.1 1020.1 -
27/05:00pm 16.0 - - - - - - - - - 1020.1 1020.1 -
27/04:30pm 16.6 - - - - - - - - - 1020.1 1020.1 -
27/04:00pm 16.8 - - - - - - - - - 1020.1 1020.1 -
27/03:30pm 17.3 - - - - - - - - - 1020.3 1020.3 -
27/03:00pm 16.9 - - - - - - - - - 1020.7 1020.7 -
27/02:30pm 16.9 - - - - - - - - - 1021.0 1020.9 -
27/02:00pm 17.4 - - - - - - - - - 1021.0 1020.9 -
27/01:30pm 17.1 - - - - - - - - - 1021.4 1021.3 -
27/01:00pm 16.6 - - - - - - - - - 1021.9 1021.8 -
27/12:30pm 16.2 - - - - - - - - - 1022.1 1022.0 -
27/12:00pm 16.1 - - - - - - - - - 1022.5 1022.4 -
27/11:30am 15.9 - - - - - - - - - 1022.9 1022.8 -
27/11:00am 15.5 - - - - - - - - - 1023.3 1023.2 -
27/10:30am 14.8 - - - - - - - - - 1023.6 1023.5 -
27/10:00am 14.6 - - - - - - - - - 1023.6 1023.5 -
27/09:30am 13.3 - - - - - - - - - 1023.7 1023.6 -
27/09:00am 12.7 - - - - - - - - - 1023.6 1023.5 -
27/08:30am 11.9 - - - - - - - - - 1023.7 1023.6 -
27/08:00am 11.3 - - - - - - - - - 1023.3 1023.2 -
27/07:30am 11.2 - - - - - - - - - 1022.8 1022.7 -
27/07:00am 10.9 - - - - - - - - - 1022.5 1022.4 -
27/06:30am 10.6 - - - - - - - - - 1022.0 1021.9 -
27/06:00am 10.9 - - - - - - - - - 1021.7 1021.6 -
27/05:30am 11.1 - - - - - - - - - 1021.8 1021.7 -
27/05:00am 11.1 - - - - - - - - - 1021.9 1021.8 -
27/04:30am 11.1 - - - - - - - - - 1021.6 1021.5 -
27/04:00am 11.0 - - - - - - - - - 1021.4 1021.3 -
27/03:30am 11.1 - - - - - - - - - 1021.4 1021.3 -
27/03:00am 11.7 - - - - - - - - - 1021.8 1021.7 -
27/02:30am 12.0 - - - - - - - - - 1021.7 1021.6 -
27/02:00am 11.7 - - - - - - - - - 1021.5 1021.4 -
27/01:30am 12.1 - - - - - - - - - 1021.3 1021.2 -
27/01:00am 12.2 - - - - - - - - - 1021.2 1021.1 -
27/12:30am 12.3 - - - - - - - - - 1021.2 1021.1 -
27/12:00am 12.4 - - - - - - - - - 1021.1 1021.0 -
 
Date/Time
WST
Temp
°C
App
Temp
°C
Dew
Point
Rel
Hum
%
Delta-T
°C
Wind Press
QNH
hPa
Press
MSL
hPa
Rain
since 9 am
mm
Dir
 
Spd
km/h
Gust
km/h
Spd
kts
Gust
kts
26/11:30pm 12.8 - - - - - - - - - 1020.7 1020.7 -
26/11:00pm 13.4 - - - - - - - - - 1020.7 1020.7 -
26/10:30pm 13.6 - - - - - - - - - 1020.3 1020.3 -
26/10:00pm 16.5 - - - - - - - - - 1020.0 1020.0 -
26/09:30pm 15.6 - - - - - - - - - 1020.0 1020.0 -
26/09:00pm 15.4 - - - - - - - - - 1020.0 1020.0 -
26/08:30pm 15.7 - - - - - - - - - 1020.0 1020.0 -
26/08:00pm 15.9 - - - - - - - - - 1020.0 1020.0 -
26/07:30pm 15.2 - - - - - - - - - 1019.4 1019.4 -
26/07:00pm 15.5 - - - - - - - - - 1019.0 1019.0 -
26/06:30pm 15.6 - - - - - - - - - 1018.9 1018.9 -
26/06:00pm 16.2 - - - - - - - - - 1018.3 1018.3 -
26/05:30pm 15.8 - - - - - - - - - 1018.0 1018.0 -
26/05:00pm 15.6 - - - - - - - - - 1017.5 1017.5 -
26/04:30pm 15.8 - - - - - - - - - 1017.0 1017.0 -
26/04:00pm 16.0 - - - - - - - - - 1016.9 1016.9 -
26/03:30pm 15.7 - - - - - - - - - 1016.4 1016.4 -
26/03:00pm 15.1 - - - - - - - - - 1016.3 1016.3 -
26/02:30pm 16.0 - - - - - - - - - 1015.5 1015.5 -
26/02:00pm 17.6 - - - - - - - - - 1015.1 1015.1 -
26/01:30pm 17.5 - - - - - - - - - 1014.9 1014.9 -
26/01:00pm 17.3 - - - - - - - - - 1014.1 1014.1 -
26/12:30pm 16.9 - - - - - - - - - 1014.1 1014.1 -
26/12:00pm 16.5 - - - - - - - - - 1013.8 1013.8 -
26/11:30am 16.2 - - - - - - - - - 1013.6 1013.6 -
26/11:00am 16.1 - - - - - - - - - 1013.8 1013.8 -
26/10:30am 16.5 - - - - - - - - - 1013.6 1013.6 -
26/10:00am 16.0 - - - - - - - - - 1013.4 1013.4 -
26/09:30am 15.5 - - - - - - - - - 1013.3 1013.3 -
26/09:00am 14.6 - - - - - - - - - 1013.1 1013.1 -
26/08:30am 14.1 - - - - - - - - - 1012.9 1012.9 -
26/08:00am 12.9 - - - - - - - - - 1012.3 1012.3 -
26/07:30am 12.0 - - - - - - - - - 1011.9 1011.9 -
26/07:00am 11.5 - - - - - - - - - 1011.7 1011.7 -
26/06:30am 11.5 - - - - - - - - - 1011.3 1011.3 -
26/06:00am 11.7 - - - - - - - - - 1011.2 1011.2 -
26/05:30am 11.4 - - - - - - - - - 1011.3 1011.3 -
26/05:00am 11.3 - - - - - - - - - 1010.8 1010.8 -
26/04:30am 11.5 - - - - - - - - - 1010.4 1010.4 -
26/04:00am 11.6 - - - - - - - - - 1010.5 1010.5 -
26/03:30am 11.7 - - - - - - - - - 1010.4 1010.4 -
26/03:00am 11.7 - - - - - - - - - 1010.1 1010.1 -
26/02:30am 12.0 - - - - - - - - - 1010.1 1010.1 -
26/02:00am 11.9 - - - - - - - - - 1010.3 1010.3 -
26/01:30am 12.0 - - - - - - - - - 1010.5 1010.5 -
26/01:00am 11.9 - - - - - - - - - 1010.5 1010.5 -
26/12:30am 12.3 - - - - - - - - - 1010.4 1010.4 -
26/12:00am 12.3 - - - - - - - - - 1010.5 1010.5 -
 
Date/Time
WST
Temp
°C
App
Temp
°C
Dew
Point
Rel
Hum
%
Delta-T
°C
Wind Press
QNH
hPa
Press
MSL
hPa
Rain
since 9 am
mm
Dir
 
Spd
km/h
Gust
km/h
Spd
kts
Gust
kts
25/11:30pm 12.6 - - - - - - - - - 1010.8 1010.8 -
25/11:00pm 13.1 - - - - - - - - - 1010.8 1010.8 -
25/10:30pm 13.1 - - - - - - - - - 1011.0 1011.0 -
25/10:00pm 13.4 - - - - - - - - - 1011.2 1011.2 -

Other Formats:

Comma delimited format used in spreadsheet applications
http://www.bom.gov.au/fwo/IDW60801/IDW60801.95648.axf

JavaScript Object Notation format (JSON) in row-major order
http://www.bom.gov.au/fwo/IDW60801/IDW60801.95648.json